createdAt,value
2023-04-27T00:01:13.145Z,4.48
2023-04-27T00:03:45.995Z,4.54
2023-04-27T00:06:18.168Z,4.61
2023-04-27T00:08:50.155Z,4.63
2023-04-27T00:11:22.455Z,4.65
2023-04-27T00:13:54.316Z,4.64
2023-04-27T00:16:26.527Z,4.56
2023-04-27T00:18:58.705Z,4.56
2023-04-27T00:21:31.880Z,4.56
2023-04-27T00:24:03.885Z,4.53
2023-04-27T00:26:35.873Z,4.52
2023-04-27T00:29:08.109Z,4.50
2023-04-27T00:31:40.129Z,4.50
2023-04-27T00:34:12.114Z,4.51
2023-04-27T00:36:44.344Z,4.53
2023-04-27T00:39:18.078Z,4.57
2023-04-27T00:41:50.053Z,4.61
2023-04-27T00:44:27.174Z,4.68
2023-04-27T00:46:59.663Z,4.77
2023-04-27T00:49:32.230Z,4.80
2023-04-27T00:52:04.305Z,4.83
2023-04-27T00:54:36.628Z,4.85
2023-04-27T00:57:09.163Z,4.80
2023-04-27T00:59:41.131Z,4.75
2023-04-27T01:02:14.163Z,4.71
2023-04-27T01:04:46.301Z,4.66
2023-04-27T01:07:18.304Z,4.61
2023-04-27T01:09:50.979Z,4.65
2023-04-27T01:12:23.068Z,4.67
2023-04-27T01:14:55.034Z,4.67
2023-04-27T01:17:27.183Z,4.69
2023-04-27T01:20:00.407Z,4.72
2023-04-27T01:22:32.460Z,4.75
2023-04-27T01:25:04.557Z,4.73
2023-04-27T01:27:37.300Z,4.78
2023-04-27T01:30:11.017Z,4.79
2023-04-27T01:32:43.135Z,4.83
2023-04-27T01:35:15.864Z,4.94
2023-04-27T01:37:48.028Z,5.07
2023-04-27T01:40:23.065Z,5.17
2023-04-27T01:42:55.117Z,5.14
2023-04-27T01:45:27.229Z,5.18
2023-04-27T01:47:59.379Z,5.18
2023-04-27T01:50:31.474Z,5.14
2023-04-27T01:53:03.506Z,5.12
2023-04-27T01:55:36.895Z,5.08
2023-04-27T01:58:09.916Z,4.98
2023-04-27T02:00:41.916Z,4.86
2023-04-27T02:03:14.198Z,4.81
2023-04-27T02:05:47.217Z,4.72
2023-04-27T02:08:19.264Z,4.57
2023-04-27T02:10:51.255Z,4.57
2023-04-27T02:13:23.257Z,4.58
2023-04-27T02:15:56.333Z,4.52
2023-04-27T02:18:29.052Z,4.47
2023-04-27T02:21:01.255Z,4.42
2023-04-27T02:23:34.820Z,4.31
2023-04-27T02:26:07.103Z,4.23
2023-04-27T02:28:42.700Z,4.15
2023-04-27T02:31:16.307Z,4.08
2023-04-27T02:33:48.415Z,4.06
2023-04-27T02:36:20.683Z,3.97
2023-04-27T02:38:52.639Z,3.89
2023-04-27T02:41:24.575Z,3.81
2023-04-27T02:43:56.647Z,3.69
2023-04-27T02:46:29.604Z,3.62
2023-04-27T02:49:02.040Z,3.59
2023-04-27T02:51:34.752Z,3.61
2023-04-27T02:54:07.051Z,3.58
2023-04-27T02:56:39.096Z,3.51
2023-04-27T02:59:11.811Z,3.44
2023-04-27T03:01:44.357Z,3.39
2023-04-27T03:04:16.686Z,3.32
2023-04-27T03:06:48.835Z,3.29
2023-04-27T03:09:20.854Z,3.24
2023-04-27T03:11:52.924Z,3.22
2023-04-27T03:14:26.013Z,3.24
2023-04-27T03:16:58.322Z,3.23
2023-04-27T03:19:30.349Z,3.27
2023-04-27T03:22:02.763Z,3.25
2023-04-27T03:24:35.133Z,3.19
2023-04-27T03:27:07.208Z,3.14
2023-04-27T03:29:39.236Z,2.99
2023-04-27T03:32:11.688Z,2.96
2023-04-27T03:34:43.980Z,2.96
2023-04-27T03:37:16.280Z,2.96
2023-04-27T03:39:48.476Z,2.93
2023-04-27T03:42:20.508Z,2.88
2023-04-27T03:44:52.513Z,2.89
2023-04-27T03:47:24.530Z,2.79
2023-04-27T03:49:57.732Z,2.67
2023-04-27T03:52:29.804Z,2.68
2023-04-27T03:55:01.840Z,2.76
2023-04-27T03:57:34.076Z,2.80
2023-04-27T04:00:11.719Z,2.79
2023-04-27T04:02:47.111Z,2.86
2023-04-27T04:05:19.691Z,2.86
2023-04-27T04:07:51.853Z,2.83
2023-04-27T04:10:24.244Z,2.85
2023-04-27T04:12:56.363Z,2.89
2023-04-27T04:15:28.598Z,2.99
2023-04-27T04:18:00.776Z,3.08
2023-04-27T04:20:32.845Z,3.07
2023-04-27T04:23:05.218Z,3.23
2023-04-27T04:25:37.317Z,3.38
2023-04-27T04:28:09.452Z,3.39
2023-04-27T04:30:41.514Z,3.45
2023-04-27T04:33:13.894Z,3.52
2023-04-27T04:35:46.366Z,3.41
2023-04-27T04:38:18.435Z,3.34
2023-04-27T04:40:52.896Z,3.31
2023-04-27T04:43:25.014Z,3.42
2023-04-27T04:45:57.249Z,3.58
2023-04-27T04:48:29.335Z,3.75
2023-04-27T04:51:01.382Z,3.90
2023-04-27T04:53:34.542Z,4.09
2023-04-27T04:56:13.426Z,4.23
2023-04-27T04:58:45.378Z,4.42
2023-04-27T05:01:17.562Z,4.55
2023-04-27T05:03:49.704Z,4.70
2023-04-27T05:06:21.998Z,4.86
2023-04-27T05:08:53.951Z,5.05
2023-04-27T05:11:26.096Z,5.26
2023-04-27T05:13:58.119Z,5.40
2023-04-27T05:16:30.362Z,5.49
2023-04-27T05:19:02.649Z,5.68
2023-04-27T05:21:34.694Z,5.89
2023-04-27T05:24:08.026Z,6.09
2023-04-27T05:26:40.435Z,6.30
2023-04-27T05:29:13.143Z,6.40
2023-04-27T05:31:46.508Z,6.49
2023-04-27T05:34:18.821Z,6.58
2023-04-27T05:36:50.845Z,6.66
2023-04-27T05:39:22.841Z,6.75
2023-04-27T05:41:54.912Z,6.81
2023-04-27T05:44:29.608Z,6.84
2023-04-27T05:47:01.636Z,6.93
2023-04-27T05:49:33.627Z,7.06
2023-04-27T05:52:06.181Z,7.19
2023-04-27T05:54:38.132Z,7.26
2023-04-27T05:57:10.276Z,7.34
2023-04-27T05:59:42.646Z,7.42
2023-04-27T06:02:14.963Z,7.56
2023-04-27T06:04:47.544Z,7.70
2023-04-27T06:07:19.774Z,7.85
2023-04-27T06:09:51.895Z,7.95
2023-04-27T06:12:24.169Z,8.05
2023-04-27T06:14:56.362Z,8.24
2023-04-27T06:17:28.479Z,8.41
2023-04-27T06:20:00.592Z,8.60
2023-04-27T06:22:32.604Z,8.71
2023-04-27T06:25:04.968Z,8.70
2023-04-27T06:27:37.040Z,8.63
2023-04-27T06:30:11.532Z,8.63
2023-04-27T06:32:43.693Z,8.66
2023-04-27T06:35:16.997Z,8.81
2023-04-27T06:37:49.173Z,8.94
2023-04-27T06:40:21.753Z,9.10
2023-04-27T06:42:53.793Z,9.24
2023-04-27T06:45:26.263Z,9.40
2023-04-27T06:47:58.315Z,9.53
2023-04-27T06:50:30.967Z,9.65
2023-04-27T06:53:03.048Z,9.79
2023-04-27T06:55:37.343Z,9.91
2023-04-27T06:58:09.496Z,10.08
2023-04-27T07:00:41.799Z,10.29
2023-04-27T07:03:14.816Z,10.47
2023-04-27T07:05:47.283Z,10.64
2023-04-27T07:08:19.403Z,10.71
2023-04-27T07:10:51.634Z,10.80
2023-04-27T07:13:23.928Z,10.87
2023-04-27T07:15:58.923Z,10.98
2023-04-27T07:18:31.228Z,11.09
2023-04-27T07:21:03.510Z,11.19
2023-04-27T07:23:36.194Z,11.34
2023-04-27T07:26:08.951Z,11.55
2023-04-27T07:28:40.969Z,11.66
2023-04-27T07:31:13.161Z,11.74
2023-04-27T07:33:45.566Z,11.73
2023-04-27T07:36:17.572Z,11.71
2023-04-27T07:38:50.092Z,11.80
2023-04-27T07:41:23.706Z,11.85
2023-04-27T07:43:55.765Z,11.87
2023-04-27T07:46:27.985Z,11.94
2023-04-27T07:49:00.626Z,12.21
2023-04-27T07:51:34.669Z,12.57
2023-04-27T07:54:08.030Z,12.92
2023-04-27T07:56:41.821Z,13.19
2023-04-27T07:59:15.099Z,13.37
2023-04-27T08:01:47.720Z,13.52
2023-04-27T08:04:20.674Z,13.63
2023-04-27T08:06:53.642Z,13.66
2023-04-27T08:09:26.970Z,13.78
2023-04-27T08:12:00.276Z,13.66
2023-04-27T08:14:32.493Z,13.32
2023-04-27T08:17:04.762Z,12.95
2023-04-27T08:19:37.015Z,13.07
2023-04-27T08:22:09.538Z,13.05
2023-04-27T08:24:41.615Z,12.82
2023-04-27T08:27:13.666Z,12.59
2023-04-27T08:29:49.887Z,12.47
2023-04-27T08:32:22.078Z,12.27
2023-04-27T08:34:54.121Z,12.10
2023-04-27T08:37:26.123Z,12.03
2023-04-27T08:39:58.183Z,11.70
2023-04-27T08:42:30.850Z,11.50
2023-04-27T08:45:03.164Z,11.67
2023-04-27T08:47:42.544Z,11.99
2023-04-27T08:50:16.248Z,12.06
2023-04-27T08:52:49.246Z,12.02
2023-04-27T08:55:21.899Z,11.97
2023-04-27T08:58:01.786Z,11.92
2023-04-27T09:00:42.049Z,11.82
2023-04-27T09:03:25.783Z,11.65
2023-04-27T09:06:05.186Z,11.49
2023-04-27T09:08:54.602Z,11.37
2023-04-27T09:11:34.094Z,11.47
2023-04-27T09:14:17.680Z,11.46
2023-04-27T09:16:59.527Z,11.68
2023-04-27T09:19:32.662Z,11.84
2023-04-27T09:22:10.997Z,11.93
2023-04-27T09:24:53.583Z,12.07
2023-04-27T09:27:25.942Z,12.24
2023-04-27T09:29:58.030Z,12.30
2023-04-27T09:32:30.411Z,12.35
2023-04-27T09:35:02.607Z,12.43
2023-04-27T09:37:35.671Z,12.41
2023-04-27T09:40:09.774Z,12.25
2023-04-27T09:42:42.604Z,12.13
2023-04-27T09:45:17.137Z,12.09
2023-04-27T09:47:50.219Z,12.02
2023-04-27T09:50:23.391Z,11.91
2023-04-27T09:52:55.621Z,11.81
2023-04-27T09:55:32.374Z,11.76
2023-04-27T09:58:20.419Z,11.62
2023-04-27T10:01:01.964Z,11.47
2023-04-27T10:03:44.836Z,11.43
2023-04-27T10:09:26.372Z,11.42
2023-04-27T10:11:58.488Z,11.39
2023-04-27T10:14:31.064Z,11.39
2023-04-27T10:17:13.586Z,11.47
2023-04-27T10:19:58.226Z,11.48
2023-04-27T10:22:43.131Z,11.41
2023-04-27T10:25:21.800Z,11.27
2023-04-27T10:27:55.864Z,11.26
2023-04-27T10:30:34.068Z,11.24
2023-04-27T10:33:11.179Z,11.21
2023-04-27T10:35:45.468Z,11.22
2023-04-27T10:38:21.753Z,11.30
2023-04-27T10:41:01.803Z,11.29
2023-04-27T10:43:38.637Z,11.37
2023-04-27T10:46:16.551Z,11.45
2023-04-27T10:48:50.813Z,11.51
2023-04-27T10:51:23.917Z,11.62
2023-04-27T10:53:56.670Z,11.76
2023-04-27T10:56:28.876Z,11.86
2023-04-27T10:59:07.356Z,12.03
2023-04-27T11:01:42.543Z,12.25
2023-04-27T11:04:15.676Z,12.42
2023-04-27T11:06:48.913Z,12.49
2023-04-27T11:09:30.432Z,12.63
2023-04-27T11:12:02.797Z,12.75
2023-04-27T11:14:35.496Z,12.70
2023-04-27T11:17:07.852Z,12.73
2023-04-27T11:19:49.243Z,12.66
2023-04-27T11:22:21.614Z,12.56
2023-04-27T11:24:55.010Z,12.56
2023-04-27T11:27:38.129Z,12.57
2023-04-27T11:30:22.576Z,12.68
2023-04-27T11:32:55.035Z,12.81
2023-04-27T11:35:37.536Z,12.95
2023-04-27T11:38:17.094Z,13.15
2023-04-27T11:41:00.365Z,13.58
2023-04-27T11:43:33.234Z,14.40
2023-04-27T11:46:08.432Z,15.28
2023-04-27T11:48:41.361Z,16.11
2023-04-27T11:51:14.422Z,16.80
2023-04-27T11:53:52.324Z,17.15
2023-04-27T11:56:24.581Z,17.43
2023-04-27T11:58:56.961Z,17.33
2023-04-27T12:01:37.688Z,17.43
2023-04-27T12:04:11.293Z,17.91
2023-04-27T12:06:44.015Z,18.20
2023-04-27T12:09:17.510Z,18.43
2023-04-27T12:11:49.837Z,18.89
2023-04-27T12:14:21.981Z,19.01
2023-04-27T12:16:54.351Z,19.05
2023-04-27T12:19:27.315Z,19.08
2023-04-27T12:22:00.434Z,18.35
2023-04-27T12:24:33.090Z,17.77
2023-04-27T12:27:05.774Z,17.41
2023-04-27T12:29:38.153Z,17.25
2023-04-27T12:32:10.420Z,17.04
2023-04-27T12:34:42.994Z,16.77
2023-04-27T12:37:15.335Z,16.59
2023-04-27T12:39:47.576Z,16.48
2023-04-27T12:42:24.153Z,16.34
2023-04-27T12:44:58.014Z,16.18
2023-04-27T12:50:07.569Z,15.80
2023-04-27T12:52:40.058Z,15.85
2023-04-27T12:55:25.141Z,15.69
2023-04-27T12:58:04.892Z,15.81
2023-04-27T13:00:37.228Z,15.80
2023-04-27T13:03:11.490Z,16.26
2023-04-27T13:05:45.970Z,16.95
2023-04-27T13:08:18.442Z,17.04
2023-04-27T13:10:50.871Z,17.17
2023-04-27T13:13:23.195Z,17.52
2023-04-27T13:15:56.502Z,18.16
2023-04-27T13:18:32.825Z,18.62
2023-04-27T13:21:07.475Z,19.00
2023-04-27T13:23:41.503Z,18.96
2023-04-27T13:26:13.803Z,18.53
2023-04-27T13:28:46.206Z,18.05
2023-04-27T13:31:18.512Z,17.46
2023-04-27T13:33:51.125Z,17.34
2023-04-27T13:36:25.956Z,17.45
2023-04-27T13:38:58.215Z,17.18
2023-04-27T13:41:31.262Z,17.85
2023-04-27T13:44:04.298Z,18.66
2023-04-27T13:46:39.311Z,19.35
2023-04-27T13:49:11.945Z,19.32
2023-04-27T13:51:44.263Z,18.71
2023-04-27T13:54:17.163Z,17.83
2023-04-27T13:56:49.712Z,17.15
2023-04-27T13:59:22.220Z,16.66
2023-04-27T14:01:56.065Z,16.25
2023-04-27T14:04:28.864Z,15.95
2023-04-27T14:07:01.859Z,15.74
2023-04-27T14:09:34.377Z,15.61
2023-04-27T14:12:08.702Z,15.43
2023-04-27T14:14:41.470Z,15.35
2023-04-27T14:17:13.901Z,15.08
2023-04-27T14:19:46.864Z,14.90
2023-04-27T14:22:19.197Z,14.76
2023-04-27T14:24:52.192Z,14.64
2023-04-27T14:27:24.835Z,14.55
2023-04-27T14:29:57.268Z,14.47
2023-04-27T14:32:30.003Z,14.45
2023-04-27T14:35:02.529Z,14.47
2023-04-27T14:37:34.820Z,14.41
2023-04-27T14:40:09.015Z,14.43
2023-04-27T14:42:41.681Z,14.52
2023-04-27T14:45:16.096Z,14.63
2023-04-27T14:47:48.957Z,14.80
2023-04-27T14:50:21.534Z,15.10
2023-04-27T14:52:58.145Z,15.42
2023-04-27T14:55:30.328Z,15.52
2023-04-27T14:58:02.678Z,15.72
2023-04-27T15:00:35.193Z,15.63
2023-04-27T15:03:08.055Z,15.35
2023-04-27T15:05:40.735Z,14.88
2023-04-27T15:08:13.110Z,14.80
2023-04-27T15:10:45.508Z,14.82
2023-04-27T15:13:18.093Z,14.76
2023-04-27T15:15:51.053Z,14.61
2023-04-27T15:18:26.107Z,14.53
2023-04-27T15:20:59.923Z,14.33
2023-04-27T15:23:33.980Z,14.12
2023-04-27T15:26:06.778Z,14.48
2023-04-27T15:28:39.071Z,14.50
2023-04-27T15:31:11.568Z,14.56
2023-04-27T15:33:44.000Z,14.71
2023-04-27T15:36:17.743Z,14.55
2023-04-27T15:38:50.531Z,14.22
2023-04-27T15:41:22.897Z,14.05
2023-04-27T15:43:55.224Z,13.96
2023-04-27T15:46:27.748Z,14.06
2023-04-27T15:49:00.190Z,14.01
2023-04-27T15:51:32.642Z,13.82
2023-04-27T15:54:05.114Z,13.66
2023-04-27T15:56:37.964Z,13.52
2023-04-27T15:59:10.344Z,13.34
2023-04-27T16:01:42.807Z,13.25
2023-04-27T16:04:15.456Z,13.18
2023-04-27T16:06:48.268Z,13.04
2023-04-27T16:09:21.371Z,12.88
2023-04-27T16:11:53.729Z,12.77
2023-04-27T16:14:26.912Z,12.70
2023-04-27T16:17:02.996Z,12.60
2023-04-27T16:19:35.524Z,12.50
2023-04-27T16:22:07.968Z,12.41
2023-04-27T16:24:40.402Z,12.28
2023-04-27T16:27:12.840Z,12.20
2023-04-27T16:29:45.308Z,12.21
2023-04-27T16:32:20.090Z,12.17
2023-04-27T16:34:52.949Z,12.06
2023-04-27T16:37:25.782Z,12.00
2023-04-27T16:40:02.303Z,12.01
2023-04-27T16:42:36.723Z,11.96
2023-04-27T16:45:11.169Z,11.84
2023-04-27T16:47:43.754Z,11.80
2023-04-27T16:50:16.285Z,11.81
2023-04-27T16:52:50.944Z,11.77
2023-04-27T16:55:23.517Z,11.77
2023-04-27T16:57:56.891Z,11.73
2023-04-27T17:00:30.732Z,11.71
2023-04-27T17:03:03.399Z,11.72
2023-04-27T17:05:36.106Z,11.66
2023-04-27T17:08:08.779Z,11.57
2023-04-27T17:10:41.651Z,11.48
2023-04-27T17:13:15.954Z,11.44
2023-04-27T17:15:48.502Z,11.41
2023-04-27T17:18:21.134Z,11.37
2023-04-27T17:20:53.477Z,11.33
2023-04-27T17:23:26.971Z,11.27
2023-04-27T17:26:02.362Z,11.18
2023-04-27T17:28:35.143Z,11.12
2023-04-27T17:31:08.321Z,11.06
2023-04-27T17:33:44.263Z,11.00
2023-04-27T17:36:16.738Z,10.96
2023-04-27T17:38:49.735Z,10.93
2023-04-27T17:41:22.494Z,10.89
2023-04-27T17:43:55.147Z,10.83
2023-04-27T17:46:27.923Z,10.78
2023-04-27T17:49:03.690Z,10.76
2023-04-27T17:51:40.082Z,10.70
2023-04-27T17:54:13.794Z,10.64
2023-04-27T17:56:48.005Z,10.52
2023-04-27T17:59:22.112Z,10.36
2023-04-27T18:01:55.855Z,10.27
2023-04-27T18:04:29.700Z,10.15
2023-04-27T18:07:03.134Z,10.08
2023-04-27T18:09:36.430Z,10.02
2023-04-27T18:12:11.952Z,9.94
2023-04-27T18:14:48.265Z,9.87
2023-04-27T18:17:22.019Z,9.76
2023-04-27T18:20:07.042Z,9.65
2023-04-27T18:22:41.853Z,9.54
2023-04-27T18:25:16.622Z,9.44
2023-04-27T18:27:55.406Z,9.37
2023-04-27T18:30:28.962Z,9.26
2023-04-27T18:33:02.628Z,9.14
2023-04-27T18:35:38.987Z,8.98
2023-04-27T18:38:17.588Z,8.82
2023-04-27T18:40:52.288Z,8.76
2023-04-27T18:43:26.280Z,8.71
2023-04-27T18:46:05.256Z,8.62
2023-04-27T18:48:41.477Z,8.48
2023-04-27T18:51:17.124Z,8.40
2023-04-27T18:53:51.295Z,8.30
2023-04-27T18:56:24.731Z,8.20
2023-04-27T18:59:01.184Z,8.11
2023-04-27T19:01:36.974Z,8.01
2023-04-27T19:04:12.708Z,7.86
2023-04-27T19:06:47.353Z,7.77
2023-04-27T19:09:21.833Z,7.71
2023-04-27T19:12:02.768Z,7.64
2023-04-27T19:14:36.612Z,7.49
2023-04-27T19:17:09.338Z,7.43
2023-04-27T19:19:42.580Z,7.37
2023-04-27T19:22:17.057Z,7.32
2023-04-27T19:24:50.578Z,7.19
2023-04-27T19:27:24.945Z,7.10
2023-04-27T19:30:01.104Z,7.06
2023-04-27T19:32:37.117Z,6.94
2023-04-27T19:35:13.192Z,6.84
2023-04-27T19:37:49.382Z,6.77
2023-04-27T19:40:26.033Z,6.68
2023-04-27T19:43:00.451Z,6.62
2023-04-27T19:45:35.940Z,6.55
2023-04-27T19:48:11.787Z,6.43
2023-04-27T19:50:47.603Z,6.34
2023-04-27T19:53:21.918Z,6.28
2023-04-27T19:56:02.797Z,6.23
2023-04-27T19:58:38.343Z,6.20
2023-04-27T20:01:13.531Z,6.16
2023-04-27T20:03:57.550Z,6.12
2023-04-27T20:06:29.823Z,6.05
2023-04-27T20:09:05.660Z,5.97
2023-04-27T20:11:42.166Z,5.91
2023-04-27T20:14:17.310Z,5.84
2023-04-27T20:16:51.179Z,5.81
2023-04-27T20:19:29.717Z,5.80
2023-04-27T20:22:07.901Z,5.76
2023-04-27T20:24:43.934Z,5.73
2023-04-27T20:27:18.131Z,5.71
2023-04-27T20:29:51.061Z,5.70
2023-04-27T20:32:25.111Z,5.66
2023-04-27T20:34:57.879Z,5.61
2023-04-27T20:37:32.439Z,5.57
2023-04-27T20:40:07.650Z,5.51
2023-04-27T20:42:42.623Z,5.55
2023-04-27T20:45:15.876Z,5.56
2023-04-27T20:47:52.401Z,5.51
2023-04-27T20:50:25.537Z,5.42
2023-04-27T20:52:58.319Z,5.20
2023-04-27T20:55:31.637Z,5.06
2023-04-27T20:58:06.059Z,4.87
2023-04-27T21:00:41.877Z,4.84
2023-04-27T21:03:15.861Z,4.81
2023-04-27T21:05:49.334Z,4.77
2023-04-27T21:08:23.138Z,4.74
2023-04-27T21:10:57.329Z,4.72
2023-04-27T21:13:30.499Z,4.65
2023-04-27T21:16:04.159Z,4.59
2023-04-27T21:18:36.800Z,4.55
2023-04-27T21:21:11.294Z,4.43
2023-04-27T21:23:44.741Z,4.36
2023-04-27T21:26:18.170Z,4.32
2023-04-27T21:28:51.279Z,4.29
2023-04-27T21:31:24.618Z,4.28
2023-04-27T21:33:57.727Z,4.26
2023-04-27T21:36:30.430Z,4.33
2023-04-27T21:39:03.054Z,4.42
2023-04-27T21:41:39.371Z,4.44
2023-04-27T21:44:11.051Z,4.33
2023-04-27T21:46:43.573Z,4.21
2023-04-27T21:49:16.138Z,4.13
2023-04-27T21:51:48.602Z,4.02
2023-04-27T21:54:20.977Z,3.95
2023-04-27T21:56:53.340Z,3.94
2023-04-27T21:59:25.664Z,3.96
2023-04-27T22:01:59.548Z,3.94
2023-04-27T22:04:31.922Z,3.95
2023-04-27T22:07:04.161Z,3.96
2023-04-27T22:09:37.059Z,4.01
2023-04-27T22:12:09.548Z,4.02
2023-04-27T22:14:42.969Z,3.93
2023-04-27T22:17:15.401Z,3.88
2023-04-27T22:19:47.616Z,3.84
2023-04-27T22:22:19.637Z,3.79
2023-04-27T22:24:51.801Z,3.72
2023-04-27T22:27:26.184Z,3.69
2023-04-27T22:30:02.783Z,3.63
2023-04-27T22:32:35.342Z,3.55
2023-04-27T22:35:24.751Z,3.52
2023-04-27T22:37:59.726Z,3.52
2023-04-27T22:40:32.016Z,3.39
2023-04-27T22:43:04.058Z,3.35
2023-04-27T22:45:38.570Z,3.42
2023-04-27T22:48:11.170Z,3.45
2023-04-27T22:50:43.253Z,3.43
2023-04-27T22:53:15.299Z,3.41
2023-04-27T22:55:47.246Z,3.30
2023-04-27T22:58:19.269Z,3.22
2023-04-27T23:00:51.350Z,3.14
2023-04-27T23:03:23.610Z,3.08
2023-04-27T23:05:55.860Z,3.04
2023-04-27T23:08:29.041Z,3.06
2023-04-27T23:11:02.979Z,3.14
2023-04-27T23:13:34.997Z,3.21
2023-04-27T23:16:07.980Z,3.29
2023-04-27T23:18:40.044Z,3.25
2023-04-27T23:21:12.593Z,3.18
2023-04-27T23:23:44.812Z,3.12
2023-04-27T23:26:17.632Z,3.10
2023-04-27T23:28:49.802Z,3.01
2023-04-27T23:31:21.836Z,2.93
2023-04-27T23:33:53.851Z,2.85
2023-04-27T23:36:25.950Z,2.78
2023-04-27T23:38:58.006Z,2.72
2023-04-27T23:41:29.986Z,2.62
2023-04-27T23:44:02.131Z,2.46
2023-04-27T23:46:34.352Z,2.43
2023-04-27T23:49:06.584Z,2.41
2023-04-27T23:51:38.669Z,2.29
2023-04-27T23:54:10.680Z,2.35
2023-04-27T23:56:42.769Z,2.34
2023-04-27T23:59:15.544Z,2.34
